createdAt,value
2023-05-16T00:02:09.823Z,4.00
2023-05-16T00:04:58.050Z,4.17
2023-05-16T00:07:45.212Z,4.60
2023-05-16T00:10:31.974Z,3.83
2023-05-16T00:13:22.280Z,3.90
2023-05-16T00:16:09.094Z,4.60
2023-05-16T00:18:56.946Z,4.10
2023-05-16T00:21:45.801Z,4.27
2023-05-16T00:24:32.486Z,4.10
2023-05-16T00:27:19.204Z,4.07
2023-05-16T00:30:06.631Z,4.47
2023-05-16T00:32:53.080Z,4.00
2023-05-16T00:35:39.844Z,4.00
2023-05-16T00:38:27.649Z,3.70
2023-05-16T00:41:14.452Z,3.37
2023-05-16T00:44:00.844Z,4.00
2023-05-16T00:46:47.505Z,3.23
2023-05-16T00:49:34.485Z,3.10
2023-05-16T00:52:20.938Z,3.37
2023-05-16T00:55:11.284Z,3.60
2023-05-16T00:57:59.611Z,2.63
2023-05-16T01:00:48.688Z,2.90
2023-05-16T01:03:36.196Z,2.50
2023-05-16T01:06:22.787Z,2.57
2023-05-16T01:09:09.509Z,2.60
2023-05-16T01:12:06.302Z,2.43
2023-05-16T01:14:57.860Z,2.10
2023-05-16T01:17:52.131Z,2.20
2023-05-16T01:20:45.595Z,2.20
2023-05-16T01:23:50.658Z,2.07
2023-05-16T01:26:40.035Z,2.00
2023-05-16T01:29:26.868Z,1.70
2023-05-16T01:32:14.517Z,1.93
2023-05-16T01:35:01.132Z,1.80
2023-05-16T01:37:55.037Z,1.67
2023-05-16T01:40:49.249Z,1.40
2023-05-16T01:43:41.251Z,2.07
2023-05-16T01:46:32.075Z,1.40
2023-05-16T01:49:26.543Z,1.83
2023-05-16T01:52:16.669Z,1.40
2023-05-16T01:55:04.321Z,1.70
2023-05-16T01:57:52.578Z,2.13
2023-05-16T02:00:41.184Z,1.40
2023-05-16T02:03:28.264Z,2.13
2023-05-16T02:06:15.078Z,1.43
2023-05-16T02:09:01.452Z,1.33
2023-05-16T02:11:47.861Z,1.60
2023-05-16T02:14:34.334Z,1.30
2023-05-16T02:17:22.780Z,1.50
2023-05-16T02:20:11.280Z,1.70
2023-05-16T02:22:57.826Z,1.57
2023-05-16T02:25:44.551Z,2.17
2023-05-16T02:28:31.250Z,1.60
2023-05-16T02:31:27.542Z,1.90
2023-05-16T02:34:15.952Z,2.00
2023-05-16T02:37:02.455Z,2.13
2023-05-16T02:39:48.764Z,2.20
2023-05-16T02:42:35.300Z,2.27
2023-05-16T02:45:21.887Z,2.20
2023-05-16T02:48:08.541Z,2.00
2023-05-16T02:50:56.806Z,1.97
2023-05-16T02:53:43.329Z,1.77
2023-05-16T02:56:29.777Z,1.73
2023-05-16T02:59:16.174Z,1.90
2023-05-16T03:02:02.875Z,2.03
2023-05-16T03:04:49.385Z,2.03
2023-05-16T03:07:37.637Z,1.87
2023-05-16T03:10:24.359Z,1.80
2023-05-16T03:13:11.014Z,1.60
2023-05-16T03:15:57.680Z,2.30
2023-05-16T03:18:44.789Z,1.97
2023-05-16T03:21:31.409Z,2.03
2023-05-16T03:24:21.712Z,1.60
2023-05-16T03:27:08.860Z,2.03
2023-05-16T03:29:55.606Z,1.77
2023-05-16T03:32:41.902Z,1.73
2023-05-16T03:35:29.059Z,1.90
2023-05-16T03:38:15.848Z,1.73
2023-05-16T03:41:03.654Z,1.60
2023-05-16T03:43:50.180Z,2.00
2023-05-16T03:46:37.084Z,1.77
2023-05-16T03:49:28.491Z,1.73
2023-05-16T03:52:16.215Z,1.80
2023-05-16T03:55:04.051Z,2.13
2023-05-16T03:57:52.479Z,1.67
2023-05-16T04:00:38.952Z,1.70
2023-05-16T04:03:28.740Z,2.37
2023-05-16T04:06:15.897Z,2.47
2023-05-16T04:09:02.821Z,2.20
2023-05-16T04:11:49.536Z,1.87
2023-05-16T04:14:37.350Z,2.40
2023-05-16T04:17:23.929Z,2.27
2023-05-16T04:20:11.835Z,2.23
2023-05-16T04:22:58.456Z,2.47
2023-05-16T04:25:44.989Z,2.03
2023-05-16T04:28:31.972Z,2.23
2023-05-16T04:31:20.167Z,3.23
2023-05-16T04:34:06.757Z,3.33
2023-05-16T04:36:53.158Z,3.70
2023-05-16T04:39:39.690Z,2.27
2023-05-16T04:42:26.856Z,3.20
2023-05-16T04:45:14.637Z,2.50
2023-05-16T04:48:02.549Z,2.90
2023-05-16T04:50:49.085Z,2.13
2023-05-16T04:53:35.757Z,2.97
2023-05-16T04:56:22.499Z,4.20
2023-05-16T04:59:08.962Z,2.70
2023-05-16T05:01:55.378Z,3.60
2023-05-16T05:04:43.247Z,4.33
2023-05-16T05:07:30.292Z,2.23
2023-05-16T05:10:16.752Z,2.00
2023-05-16T05:13:03.639Z,1.87
2023-05-16T05:15:50.430Z,2.00
2023-05-16T05:18:37.283Z,3.17
2023-05-16T05:21:26.101Z,2.07
2023-05-16T05:24:12.813Z,2.10
2023-05-16T05:26:59.334Z,1.90
2023-05-16T05:29:45.947Z,2.17
2023-05-16T05:32:32.672Z,1.70
2023-05-16T05:35:19.681Z,1.77
2023-05-16T05:38:07.708Z,2.20
2023-05-16T05:40:54.213Z,2.60
2023-05-16T05:43:40.663Z,2.07
2023-05-16T05:46:27.521Z,2.10
2023-05-16T05:49:14.254Z,1.80
2023-05-16T05:52:00.845Z,2.83
2023-05-16T05:54:49.081Z,1.70
2023-05-16T05:57:35.709Z,1.50
2023-05-16T06:00:22.537Z,1.97
2023-05-16T06:03:08.998Z,2.10
2023-05-16T06:05:56.206Z,1.67
2023-05-16T06:08:43.009Z,1.80
2023-05-16T06:11:30.934Z,1.80
2023-05-16T06:14:17.733Z,2.10
2023-05-16T06:17:04.324Z,1.73
2023-05-16T06:19:51.617Z,2.10
2023-05-16T06:22:37.992Z,2.53
2023-05-16T06:25:24.198Z,2.07
2023-05-16T06:28:11.988Z,4.80
2023-05-16T06:30:58.978Z,2.00
2023-05-16T06:33:45.940Z,1.77
2023-05-16T06:36:32.667Z,1.97
2023-05-16T06:39:19.160Z,1.60
2023-05-16T06:42:06.081Z,1.70
2023-05-16T06:44:53.721Z,1.97
2023-05-16T06:47:40.441Z,2.13
2023-05-16T06:50:27.381Z,1.63
2023-05-16T06:53:13.789Z,2.23
2023-05-16T06:56:00.276Z,1.53
2023-05-16T06:58:47.446Z,2.27
2023-05-16T07:01:35.219Z,1.87
2023-05-16T07:04:21.919Z,1.90
2023-05-16T07:07:09.226Z,1.30
2023-05-16T07:09:55.860Z,1.80
2023-05-16T07:12:43.469Z,1.87
2023-05-16T07:15:30.393Z,2.00
2023-05-16T07:18:18.537Z,1.80
2023-05-16T07:21:05.783Z,2.33
2023-05-16T07:23:52.199Z,1.73
2023-05-16T07:26:38.716Z,1.40
2023-05-16T07:29:25.104Z,1.70
2023-05-16T07:32:11.729Z,1.50
2023-05-16T07:34:59.953Z,1.50
2023-05-16T07:37:46.877Z,1.27
2023-05-16T07:40:33.674Z,2.00
2023-05-16T07:43:20.183Z,1.80
2023-05-16T07:46:07.184Z,1.53
2023-05-16T07:48:54.131Z,1.87
2023-05-16T07:51:41.997Z,1.50
2023-05-16T07:54:28.684Z,2.17
2023-05-16T07:57:15.685Z,1.40
2023-05-16T08:00:04.274Z,1.33
2023-05-16T08:02:50.966Z,1.30
2023-05-16T08:05:37.767Z,1.80
2023-05-16T08:08:26.265Z,1.80
2023-05-16T08:11:12.699Z,1.43
2023-05-16T08:13:59.124Z,1.73
2023-05-16T08:16:45.607Z,1.70
2023-05-16T08:19:33.088Z,1.30
2023-05-16T08:22:19.884Z,1.30
2023-05-16T08:25:09.107Z,1.37
2023-05-16T08:27:55.783Z,1.13
2023-05-16T08:30:43.406Z,1.23
2023-05-16T08:33:31.129Z,1.20
2023-05-16T08:36:19.991Z,1.70
2023-05-16T08:39:07.582Z,1.10
2023-05-16T08:41:56.382Z,1.77
2023-05-16T08:44:43.159Z,1.23
2023-05-16T08:47:33.126Z,1.40
2023-05-16T08:50:20.151Z,1.47
2023-05-16T08:53:09.217Z,1.33
2023-05-16T08:55:56.642Z,1.17
2023-05-16T08:58:45.261Z,0.90
2023-05-16T09:01:32.578Z,0.87
2023-05-16T09:04:19.408Z,1.17
2023-05-16T09:07:06.664Z,0.90
2023-05-16T09:09:53.080Z,1.67
2023-05-16T09:12:40.806Z,1.30
2023-05-16T09:15:34.242Z,1.17
2023-05-16T09:18:23.344Z,1.30
2023-05-16T09:21:12.129Z,0.80
2023-05-16T09:24:04.127Z,1.43
2023-05-16T09:26:50.731Z,1.10
2023-05-16T09:29:37.163Z,1.10
2023-05-16T09:32:26.192Z,1.37
2023-05-16T09:35:16.611Z,0.90
2023-05-16T09:38:06.291Z,1.63
2023-05-16T09:40:52.880Z,1.33
2023-05-16T09:43:42.007Z,1.60
2023-05-16T09:46:28.936Z,1.47
2023-05-16T09:49:17.084Z,1.20
2023-05-16T09:52:04.598Z,1.27
2023-05-16T09:54:51.223Z,1.30
2023-05-16T09:57:39.852Z,1.13
2023-05-16T10:00:31.245Z,1.70
2023-05-16T10:03:18.225Z,1.20
2023-05-16T10:06:07.841Z,1.10
2023-05-16T10:08:54.961Z,1.43
2023-05-16T10:11:43.380Z,1.13
2023-05-16T10:14:29.887Z,1.13
2023-05-16T10:17:17.505Z,1.00
2023-05-16T10:20:08.075Z,1.13
2023-05-16T10:22:57.609Z,1.17
2023-05-16T10:25:45.633Z,0.83
2023-05-16T10:28:32.561Z,1.20
2023-05-16T10:31:19.793Z,0.83
2023-05-16T10:34:06.824Z,1.63
2023-05-16T10:36:54.595Z,0.70
2023-05-16T10:39:43.108Z,1.17
2023-05-16T10:42:29.745Z,0.90
2023-05-16T10:45:20.536Z,1.00
2023-05-16T10:48:09.761Z,1.00
2023-05-16T10:50:56.985Z,0.90
2023-05-16T10:53:45.123Z,1.07
2023-05-16T10:56:34.629Z,0.70
2023-05-16T10:59:26.208Z,1.07
2023-05-16T11:02:33.130Z,0.80
2023-05-16T11:05:20.973Z,0.70
2023-05-16T11:08:08.228Z,1.00
2023-05-16T11:11:34.615Z,1.20
2023-05-16T11:14:23.749Z,1.07
2023-05-16T11:17:13.392Z,0.87
2023-05-16T11:20:00.554Z,1.17
2023-05-16T11:22:46.994Z,1.30
2023-05-16T11:25:39.354Z,1.40
2023-05-16T11:28:26.872Z,1.10
2023-05-16T11:31:15.230Z,1.30
2023-05-16T11:34:02.102Z,0.90
2023-05-16T11:36:49.086Z,0.90
2023-05-16T11:39:36.325Z,1.17
2023-05-16T11:42:23.081Z,0.97
2023-05-16T11:45:12.270Z,0.90
2023-05-16T11:48:04.193Z,1.27
2023-05-16T11:50:51.137Z,0.87
2023-05-16T11:53:39.721Z,1.17
2023-05-16T11:56:27.524Z,1.40
2023-05-16T11:59:14.855Z,1.43
2023-05-16T12:02:05.657Z,1.13
2023-05-16T12:04:53.662Z,1.30
2023-05-16T12:07:40.839Z,1.20
2023-05-16T12:10:27.587Z,1.30
2023-05-16T12:13:14.798Z,1.10
2023-05-16T12:16:02.467Z,1.40
2023-05-16T12:18:50.182Z,1.30
2023-05-16T12:21:41.468Z,1.10
2023-05-16T12:24:32.792Z,1.20
2023-05-16T12:27:23.613Z,1.40
2023-05-16T12:30:10.935Z,1.50
2023-05-16T12:32:58.556Z,0.90
2023-05-16T12:35:48.124Z,1.20
2023-05-16T12:38:36.249Z,1.47
2023-05-16T12:41:26.646Z,0.50
2023-05-16T12:44:16.837Z,0.90
2023-05-16T12:47:03.797Z,0.90
2023-05-16T12:49:51.339Z,0.70
2023-05-16T12:52:37.946Z,0.80
2023-05-16T12:55:26.276Z,1.00
2023-05-16T12:58:13.177Z,0.70
2023-05-16T13:01:00.159Z,1.13
2023-05-16T13:03:46.622Z,0.87
2023-05-16T13:06:49.006Z,1.07
2023-05-16T13:09:41.868Z,1.07
2023-05-16T13:12:29.723Z,1.03
2023-05-16T13:15:16.645Z,1.17
2023-05-16T13:18:03.547Z,0.73
2023-05-16T13:20:51.063Z,1.00
2023-05-16T13:23:37.866Z,0.70
2023-05-16T13:26:24.495Z,0.93
2023-05-16T13:29:13.040Z,0.80
2023-05-16T13:31:59.540Z,0.77
2023-05-16T13:34:46.463Z,1.10
2023-05-16T13:37:32.893Z,0.80
2023-05-16T13:40:19.375Z,0.80
2023-05-16T13:43:06.843Z,1.20
2023-05-16T13:45:55.238Z,1.00
2023-05-16T13:48:42.654Z,0.80
2023-05-16T13:51:29.078Z,0.90
2023-05-16T13:54:15.400Z,0.70
2023-05-16T13:57:03.855Z,0.90
2023-05-16T14:02:42.958Z,0.83
2023-05-16T14:05:30.100Z,1.10
2023-05-16T14:08:16.827Z,0.87
2023-05-16T14:11:03.385Z,1.00
2023-05-16T14:13:50.500Z,1.00
2023-05-16T14:16:37.432Z,1.30
2023-05-16T14:19:26.048Z,0.57
2023-05-16T14:22:12.700Z,0.73
2023-05-16T14:24:58.968Z,1.03
2023-05-16T14:27:45.435Z,1.17
2023-05-16T14:30:32.029Z,0.97
2023-05-16T14:33:18.774Z,0.90
2023-05-16T14:36:08.603Z,0.60
2023-05-16T14:38:55.383Z,0.93
2023-05-16T14:41:41.843Z,0.90
2023-05-16T14:44:28.372Z,0.50
2023-05-16T14:47:14.931Z,1.13
2023-05-16T14:50:02.041Z,0.50
2023-05-16T14:52:50.559Z,1.10
2023-05-16T14:55:37.699Z,1.03
2023-05-16T14:58:24.230Z,1.00
2023-05-16T15:01:13.126Z,0.67
2023-05-16T15:04:01.432Z,1.00
2023-05-16T15:06:48.401Z,1.10
2023-05-16T15:09:36.618Z,0.90
2023-05-16T15:12:22.936Z,0.73
2023-05-16T15:15:13.042Z,1.00
2023-05-16T15:18:01.689Z,0.90
2023-05-16T15:20:48.484Z,1.10
2023-05-16T15:23:34.929Z,0.97
2023-05-16T15:26:23.153Z,0.80
2023-05-16T15:29:09.867Z,0.70
2023-05-16T15:31:56.646Z,0.70
2023-05-16T15:34:43.396Z,0.97
2023-05-16T15:37:30.149Z,1.00
2023-05-16T15:40:16.990Z,0.90
2023-05-16T15:43:04.849Z,1.10
2023-05-16T15:45:51.627Z,0.97
2023-05-16T15:48:38.493Z,0.97
2023-05-16T15:51:24.852Z,0.93
2023-05-16T15:54:11.594Z,1.10
2023-05-16T15:56:58.357Z,1.10
2023-05-16T15:59:46.684Z,1.67
2023-05-16T16:02:33.502Z,0.90
2023-05-16T16:05:20.228Z,0.90
2023-05-16T16:08:06.983Z,1.30
2023-05-16T16:10:53.657Z,1.30
2023-05-16T16:13:40.092Z,1.47
2023-05-16T16:16:27.991Z,1.17
2023-05-16T16:19:14.845Z,1.17
2023-05-16T16:22:01.710Z,1.20
2023-05-16T16:24:48.534Z,1.20
2023-05-16T16:27:34.999Z,2.10
2023-05-16T16:30:21.510Z,1.57
2023-05-16T16:33:09.433Z,3.50
2023-05-16T16:35:56.298Z,1.53
2023-05-16T16:38:43.047Z,1.87
2023-05-16T16:41:29.369Z,1.40
2023-05-16T16:44:15.936Z,1.90
2023-05-16T16:47:02.604Z,1.60
2023-05-16T16:49:50.841Z,1.63
2023-05-16T16:52:37.402Z,1.60
2023-05-16T16:55:23.765Z,1.83
2023-05-16T16:58:10.242Z,2.00
2023-05-16T17:00:57.002Z,1.57
2023-05-16T17:03:43.815Z,1.93
2023-05-16T17:06:32.147Z,2.20
2023-05-16T17:09:19.622Z,1.70
2023-05-16T17:12:08.503Z,1.83
2023-05-16T17:14:56.255Z,2.03
2023-05-16T17:17:43.259Z,2.10
2023-05-16T17:20:29.813Z,1.90
2023-05-16T17:23:17.656Z,2.17
2023-05-16T17:26:04.595Z,2.60
2023-05-16T17:28:51.366Z,2.00
2023-05-16T17:31:37.733Z,2.47
2023-05-16T17:34:24.413Z,2.50
2023-05-16T17:37:11.302Z,2.60
2023-05-16T17:39:59.057Z,2.30
2023-05-16T17:42:45.887Z,2.50
2023-05-16T17:45:32.169Z,2.53
2023-05-16T17:48:19.595Z,2.70
2023-05-16T17:51:06.758Z,2.60
2023-05-16T17:53:54.092Z,2.33
2023-05-16T17:56:42.835Z,2.77
2023-05-16T17:59:30.043Z,2.77
2023-05-16T18:02:17.433Z,2.47
2023-05-16T18:05:04.038Z,3.07
2023-05-16T18:07:51.769Z,2.57
2023-05-16T18:10:50.838Z,3.00
2023-05-16T18:13:39.979Z,3.20
2023-05-16T18:16:26.674Z,3.37
2023-05-16T18:19:13.444Z,2.73
2023-05-16T18:22:01.105Z,3.20
2023-05-16T18:24:47.707Z,2.63
2023-05-16T18:27:34.441Z,3.03
2023-05-16T18:30:23.596Z,2.70
2023-05-16T18:33:10.358Z,2.53
2023-05-16T18:35:57.232Z,2.63
2023-05-16T18:38:44.013Z,2.03
2023-05-16T18:41:30.719Z,2.50
2023-05-16T18:44:17.804Z,2.37
2023-05-16T18:47:06.736Z,2.53
2023-05-16T18:49:53.308Z,2.40
2023-05-16T18:52:40.663Z,2.40
2023-05-16T18:55:27.419Z,2.37
2023-05-16T18:58:14.365Z,2.10
2023-05-16T19:01:00.708Z,2.27
2023-05-16T19:03:49.203Z,2.47
2023-05-16T19:06:35.877Z,2.10
2023-05-16T19:09:22.364Z,2.37
2023-05-16T19:12:09.666Z,2.30
2023-05-16T19:14:56.304Z,2.20
2023-05-16T19:17:43.089Z,2.30
2023-05-16T19:20:31.301Z,2.93
2023-05-16T19:23:18.193Z,2.30
2023-05-16T19:26:04.828Z,2.23
2023-05-16T19:28:51.549Z,2.27
2023-05-16T19:31:38.099Z,2.17
2023-05-16T19:34:26.689Z,2.20
2023-05-16T19:37:14.749Z,2.53
2023-05-16T19:40:01.494Z,2.73
2023-05-16T19:42:48.298Z,2.20
2023-05-16T19:45:34.764Z,2.20
2023-05-16T19:48:21.244Z,2.83
2023-05-16T19:51:09.258Z,2.67
2023-05-16T19:53:57.469Z,2.30
2023-05-16T19:56:43.799Z,2.60
2023-05-16T19:59:32.096Z,2.97
2023-05-16T20:02:21.076Z,2.80
2023-05-16T20:05:10.015Z,2.60
2023-05-16T20:07:56.732Z,3.10
2023-05-16T20:10:45.045Z,3.40
2023-05-16T20:13:32.102Z,2.40
2023-05-16T20:16:20.694Z,3.63
2023-05-16T20:19:08.123Z,2.87
2023-05-16T20:21:54.885Z,2.53
2023-05-16T20:24:41.298Z,2.50
2023-05-16T20:27:30.448Z,3.30
2023-05-16T20:30:18.277Z,3.00
2023-05-16T20:33:05.166Z,2.67
2023-05-16T20:35:51.609Z,2.57
2023-05-16T20:38:38.893Z,2.80
2023-05-16T20:41:26.109Z,2.90
2023-05-16T20:44:14.636Z,2.60
2023-05-16T20:47:00.999Z,3.10
2023-05-16T20:49:47.477Z,3.53
2023-05-16T20:52:34.043Z,2.37
2023-05-16T20:55:20.700Z,2.70
2023-05-16T20:58:07.159Z,2.30
2023-05-16T21:00:55.061Z,2.83
2023-05-16T21:03:41.825Z,2.80
2023-05-16T21:06:28.710Z,2.90
2023-05-16T21:09:15.106Z,2.27
2023-05-16T21:12:04.532Z,2.30
2023-05-16T21:14:51.148Z,3.03
2023-05-16T21:17:39.522Z,2.50
2023-05-16T21:20:28.515Z,3.07
2023-05-16T21:23:14.905Z,2.50
2023-05-16T21:26:01.354Z,2.73
2023-05-16T21:28:55.044Z,3.17
2023-05-16T21:31:42.425Z,2.80
2023-05-16T21:34:30.295Z,2.37
2023-05-16T21:37:16.873Z,2.93
2023-05-16T21:40:03.799Z,2.73
2023-05-16T21:42:50.521Z,3.00
2023-05-16T21:45:36.861Z,2.70
2023-05-16T21:48:23.464Z,2.77
2023-05-16T21:51:11.571Z,2.33
2023-05-16T21:53:58.198Z,2.30
2023-05-16T21:56:44.686Z,2.33
2023-05-16T21:59:31.147Z,2.63
2023-05-16T22:02:18.580Z,2.17
2023-05-16T22:05:06.161Z,2.10
2023-05-16T22:07:54.312Z,2.20
2023-05-16T22:10:41.181Z,2.13
2023-05-16T22:13:27.688Z,2.23
2023-05-16T22:16:14.477Z,2.00
2023-05-16T22:19:01.210Z,1.90
2023-05-16T22:21:48.030Z,1.93
2023-05-16T22:24:35.908Z,1.80
2023-05-16T22:27:22.606Z,1.77
2023-05-16T22:30:10.293Z,2.10
2023-05-16T22:32:57.226Z,2.23
2023-05-16T22:35:43.712Z,2.13
2023-05-16T22:38:30.096Z,2.03
2023-05-16T22:41:17.898Z,1.60
2023-05-16T22:44:04.775Z,1.93
2023-05-16T22:46:51.418Z,1.97
2023-05-16T22:49:37.813Z,2.10
2023-05-16T22:52:24.274Z,1.90
2023-05-16T22:55:11.822Z,2.37
2023-05-16T22:58:00.768Z,2.20
2023-05-16T23:00:47.375Z,2.10
2023-05-16T23:03:34.619Z,1.90
2023-05-16T23:06:21.432Z,1.80
2023-05-16T23:09:08.046Z,1.60
2023-05-16T23:11:54.532Z,1.93
2023-05-16T23:14:42.326Z,1.40
2023-05-16T23:17:30.176Z,1.80
2023-05-16T23:20:16.912Z,2.17
2023-05-16T23:23:03.297Z,2.00
2023-05-16T23:25:49.697Z,2.10
2023-05-16T23:28:36.362Z,1.80
2023-05-16T23:31:24.486Z,2.00
2023-05-16T23:34:11.041Z,1.80
2023-05-16T23:36:57.822Z,1.97
2023-05-16T23:39:44.705Z,1.70
2023-05-16T23:42:31.251Z,1.83
2023-05-16T23:45:17.689Z,2.40
2023-05-16T23:48:06.153Z,1.73
2023-05-16T23:50:52.989Z,2.27
2023-05-16T23:53:39.477Z,2.10
2023-05-16T23:56:25.977Z,1.87
2023-05-16T23:59:12.355Z,2.30
